createdAt,value
2019-01-13T00:00:33.750Z,98951.30
2019-01-13T00:03:03.608Z,98952.96
2019-01-13T00:05:33.668Z,98945.77
2019-01-13T00:08:03.992Z,98948.70
2019-01-13T00:10:33.618Z,98945.48
2019-01-13T00:13:03.748Z,98950.76
2019-01-13T00:15:33.206Z,98960.67
2019-01-13T00:18:02.921Z,98965.02
2019-01-13T00:20:32.781Z,98966.33
2019-01-13T00:23:02.733Z,98975.64
2019-01-13T00:25:32.403Z,98977.94
2019-01-13T00:28:02.081Z,98972.13
2019-01-13T00:30:31.711Z,98975.89
2019-01-13T00:33:01.349Z,98975.95
2019-01-13T00:35:32.004Z,98966.42
2019-01-13T00:38:01.824Z,98980.36
2019-01-13T00:40:31.425Z,98988.95
2019-01-13T00:43:01.364Z,98983.83
2019-01-13T00:45:31.059Z,98982.80
2019-01-13T00:48:00.592Z,98990.44
2019-01-13T00:50:30.327Z,98991.53
2019-01-13T00:53:00.016Z,98984.70
2019-01-13T00:55:29.819Z,98992.27
2019-01-13T00:57:59.430Z,98983.69
2019-01-13T01:00:29.117Z,98978.53
2019-01-13T01:02:58.859Z,98973.33
2019-01-13T01:05:28.656Z,98967.75
2019-01-13T01:07:58.373Z,98968.26
2019-01-13T01:10:28.078Z,98969.35
2019-01-13T01:12:57.731Z,98962.39
2019-01-13T01:15:27.470Z,98966.75
2019-01-13T01:17:57.334Z,98972.94
2019-01-13T01:20:26.898Z,98961.12
2019-01-13T01:22:56.809Z,98959.43
2019-01-13T01:25:26.337Z,98955.76
2019-01-13T01:27:56.362Z,98950.33
2019-01-13T01:30:33.285Z,98950.78
2019-01-13T01:32:57.745Z,98943.73
2019-01-13T01:35:27.545Z,98950.98
2019-01-13T01:37:57.684Z,98953.34
2019-01-13T01:40:27.317Z,98947.89
2019-01-13T01:42:58.881Z,98940.65
2019-01-13T01:45:28.656Z,98945.33
2019-01-13T01:47:58.804Z,98945.26
2019-01-13T01:50:28.307Z,98951.88
2019-01-13T01:52:58.310Z,98949.15
2019-01-13T01:55:28.005Z,98943.52
2019-01-13T01:57:57.888Z,98948.86
2019-01-13T02:00:27.659Z,98944.76
2019-01-13T02:02:57.409Z,98942.97
2019-01-13T02:05:27.061Z,98934.84
2019-01-13T02:07:56.755Z,98927.34
2019-01-13T02:10:26.997Z,98923.31
2019-01-13T02:12:57.357Z,98928.75
2019-01-13T02:15:27.810Z,98925.87
2019-01-13T02:17:57.920Z,98922.64
2019-01-13T02:20:27.727Z,98929.11
2019-01-13T02:22:57.552Z,98923.31
2019-01-13T02:25:28.070Z,98919.69
2019-01-13T02:27:58.319Z,98916.09
2019-01-13T02:30:28.543Z,98921.61
2019-01-13T02:32:58.364Z,98900.61
2019-01-13T02:35:27.972Z,98912.73
2019-01-13T02:37:57.990Z,98897.22
2019-01-13T02:40:28.135Z,98891.73
2019-01-13T02:42:58.046Z,98897.11
2019-01-13T02:45:28.799Z,98892.45
2019-01-13T02:47:58.932Z,98895.35
2019-01-13T02:50:28.558Z,98904.94
2019-01-13T02:52:58.156Z,98908.34
2019-01-13T02:55:28.000Z,98902.45
2019-01-13T02:57:57.471Z,98897.53
2019-01-13T03:00:27.547Z,98894.66
2019-01-13T03:02:57.537Z,98895.27
2019-01-13T03:05:27.265Z,98890.13
2019-01-13T03:07:56.981Z,98883.14
2019-01-13T03:10:26.633Z,98886.81
2019-01-13T03:12:56.797Z,98893.80
2019-01-13T03:15:26.652Z,98898.94
2019-01-13T03:17:56.347Z,98894.89
2019-01-13T03:20:25.985Z,98887.77
2019-01-13T03:22:55.735Z,98890.55
2019-01-13T03:25:25.547Z,98881.47
2019-01-13T03:27:55.192Z,98876.09
2019-01-13T03:30:25.296Z,98879.92
2019-01-13T03:32:55.044Z,98882.05
2019-01-13T03:35:25.259Z,98882.57
2019-01-13T03:37:55.048Z,98876.25
2019-01-13T03:40:25.274Z,98884.92
2019-01-13T03:42:55.423Z,98872.05
2019-01-13T03:45:25.494Z,98870.63
2019-01-13T03:47:55.356Z,98859.86
2019-01-13T03:50:25.886Z,98861.71
2019-01-13T03:52:55.697Z,98874.27
2019-01-13T03:55:25.868Z,98860.58
2019-01-13T03:57:55.396Z,98850.19
2019-01-13T04:00:25.974Z,98838.30
2019-01-13T04:02:56.454Z,98826.69
2019-01-13T04:05:25.965Z,98825.84
2019-01-13T04:07:55.905Z,98816.29
2019-01-13T04:10:25.575Z,98820.09
2019-01-13T04:12:55.310Z,98821.03
2019-01-13T04:15:35.752Z,98813.66
2019-01-13T04:18:05.981Z,98801.20
2019-01-13T04:20:36.104Z,98793.68
2019-01-13T04:23:05.821Z,98790.38
2019-01-13T04:25:35.413Z,98792.59
2019-01-13T04:28:05.496Z,98783.63
2019-01-13T04:30:35.249Z,98770.41
2019-01-13T04:33:05.251Z,98755.73
2019-01-13T04:35:34.963Z,98753.91
2019-01-13T04:38:04.633Z,98752.67
2019-01-13T04:40:34.494Z,98755.58
2019-01-13T04:43:04.113Z,98757.66
2019-01-13T04:45:33.833Z,98743.44
2019-01-13T04:48:03.476Z,98741.42
2019-01-13T04:50:33.087Z,98741.70
2019-01-13T04:53:02.676Z,98747.16
2019-01-13T04:55:32.633Z,98746.19
2019-01-13T04:58:02.281Z,98738.00
2019-01-13T05:00:32.215Z,98734.77
2019-01-13T05:03:02.097Z,98732.44
2019-01-13T05:05:31.795Z,98731.39
2019-01-13T05:08:01.461Z,98721.95
2019-01-13T05:10:31.335Z,98727.43
2019-01-13T05:13:00.936Z,98718.82
2019-01-13T05:15:30.608Z,98705.96
2019-01-13T05:18:03.403Z,98704.27
2019-01-13T05:20:33.062Z,98704.31
2019-01-13T05:23:02.846Z,98703.84
2019-01-13T05:25:32.474Z,98706.30
2019-01-13T05:28:02.109Z,98707.19
2019-01-13T05:30:31.755Z,98698.16
2019-01-13T05:33:01.643Z,98693.27
2019-01-13T05:35:31.305Z,98680.13
2019-01-13T05:38:00.987Z,98683.03
2019-01-13T05:40:30.583Z,98670.14
2019-01-13T05:43:00.465Z,98666.22
2019-01-13T05:45:30.400Z,98661.01
2019-01-13T05:47:59.942Z,98663.02
2019-01-13T05:50:29.447Z,98664.05
2019-01-13T05:52:59.390Z,98661.73
2019-01-13T05:55:29.405Z,98652.80
2019-01-13T05:57:59.018Z,98647.43
2019-01-13T06:00:30.475Z,98642.95
2019-01-13T06:03:00.175Z,98639.42
2019-01-13T06:05:29.890Z,98628.33
2019-01-13T06:07:59.554Z,98625.83
2019-01-13T06:10:29.044Z,98628.80
2019-01-13T06:12:58.801Z,98614.32
2019-01-13T06:15:28.343Z,98614.78
2019-01-13T06:17:57.960Z,98607.08
2019-01-13T06:20:27.809Z,98596.38
2019-01-13T06:22:57.705Z,98600.00
2019-01-13T06:25:27.289Z,98587.76
2019-01-13T06:27:57.143Z,98587.72
2019-01-13T06:30:26.734Z,98585.52
2019-01-13T06:32:56.563Z,98578.10
2019-01-13T06:35:26.121Z,98579.30
2019-01-13T06:37:55.988Z,98571.03
2019-01-13T06:40:25.729Z,98562.39
2019-01-13T06:42:55.498Z,98563.51
2019-01-13T06:45:25.203Z,98567.88
2019-01-13T06:47:54.848Z,98554.18
2019-01-13T06:50:24.594Z,98560.09
2019-01-13T06:52:54.333Z,98559.59
2019-01-13T06:55:24.038Z,98554.39
2019-01-13T06:57:54.102Z,98554.22
2019-01-13T07:00:25.844Z,98547.95
2019-01-13T07:02:56.076Z,98541.02
2019-01-13T07:05:26.073Z,98541.12
2019-01-13T07:07:55.788Z,98530.44
2019-01-13T07:10:26.069Z,98526.41
2019-01-13T07:12:55.762Z,98528.70
2019-01-13T07:15:25.600Z,98522.16
2019-01-13T07:17:55.556Z,98526.97
2019-01-13T07:20:25.277Z,98516.25
2019-01-13T07:22:55.084Z,98512.00
2019-01-13T07:25:25.083Z,98512.88
2019-01-13T07:27:54.587Z,98512.66
2019-01-13T07:30:24.757Z,98501.70
2019-01-13T07:32:54.383Z,98491.89
2019-01-13T07:35:24.215Z,98484.78
2019-01-13T07:37:54.082Z,98480.92
2019-01-13T07:40:24.411Z,98474.63
2019-01-13T07:42:54.244Z,98480.84
2019-01-13T07:45:24.844Z,98471.37
2019-01-13T07:47:54.668Z,98466.58
2019-01-13T07:50:24.984Z,98463.86
2019-01-13T07:52:54.638Z,98442.94
2019-01-13T07:55:25.141Z,98458.23
2019-01-13T07:57:54.964Z,98460.80
2019-01-13T08:00:30.509Z,98459.89
2019-01-13T08:03:00.124Z,98444.36
2019-01-13T08:05:29.924Z,98434.42
2019-01-13T08:07:59.607Z,98429.56
2019-01-13T08:10:29.370Z,98416.37
2019-01-13T08:12:59.062Z,98411.12
2019-01-13T08:15:32.819Z,98405.53
2019-01-13T08:18:02.532Z,98403.41
2019-01-13T08:20:32.659Z,98399.80
2019-01-13T08:23:02.929Z,98396.04
2019-01-13T08:25:32.581Z,98384.55
2019-01-13T08:28:02.202Z,98379.72
2019-01-13T08:30:32.113Z,98383.52
2019-01-13T08:33:01.607Z,98383.06
2019-01-13T08:35:31.267Z,98365.91
2019-01-13T08:38:00.959Z,98364.25
2019-01-13T08:40:31.049Z,98363.56
2019-01-13T08:43:00.922Z,98361.44
2019-01-13T08:45:30.753Z,98311.44
2019-01-13T08:48:00.743Z,98321.53
2019-01-13T08:50:30.602Z,98321.86
2019-01-13T08:53:00.542Z,98315.92
2019-01-13T08:55:30.486Z,98320.30
2019-01-13T08:58:00.190Z,98320.25
2019-01-13T09:00:31.364Z,98319.78
2019-01-13T09:03:01.054Z,98318.09
2019-01-13T09:05:31.076Z,98309.69
2019-01-13T09:08:00.853Z,98305.97
2019-01-13T09:10:30.918Z,98305.97
2019-01-13T09:13:00.868Z,98302.35
2019-01-13T09:15:30.846Z,98300.33
2019-01-13T09:18:00.566Z,98286.61
2019-01-13T09:20:31.531Z,98279.80
2019-01-13T09:23:01.515Z,98271.70
2019-01-13T09:25:31.323Z,98259.73
2019-01-13T09:28:00.928Z,98263.57
2019-01-13T09:30:31.712Z,98255.75
2019-01-13T09:33:01.431Z,98253.42
2019-01-13T09:35:32.290Z,98250.18
2019-01-13T09:38:01.970Z,98250.56
2019-01-13T09:40:32.443Z,98245.89
2019-01-13T09:43:02.753Z,98241.58
2019-01-13T09:45:33.172Z,98238.83
2019-01-13T09:48:02.833Z,98234.36
2019-01-13T09:50:33.036Z,98242.37
2019-01-13T09:53:02.656Z,98224.77
2019-01-13T09:55:32.258Z,98225.94
2019-01-13T09:58:01.972Z,98218.13
2019-01-13T10:00:34.439Z,98229.33
2019-01-13T10:03:04.714Z,98217.06
2019-01-13T10:05:34.597Z,98208.05
2019-01-13T10:08:04.641Z,98207.97
2019-01-13T10:10:34.661Z,98203.16
2019-01-13T10:13:04.869Z,98197.11
2019-01-13T10:15:34.739Z,98191.45
2019-01-13T10:18:04.613Z,98183.04
2019-01-13T10:20:34.404Z,98182.91
2019-01-13T10:23:04.141Z,98183.75
2019-01-13T10:25:33.814Z,98163.61
2019-01-13T10:28:03.795Z,98160.72
2019-01-13T10:30:33.627Z,98157.69
2019-01-13T10:33:03.295Z,98168.25
2019-01-13T10:35:33.371Z,98170.32
2019-01-13T10:38:03.503Z,98163.59
2019-01-13T10:40:33.609Z,98158.09
2019-01-13T10:43:03.615Z,98140.93
2019-01-13T10:45:33.371Z,98140.71
2019-01-13T10:48:03.353Z,98139.95
2019-01-13T10:50:34.036Z,98129.72
2019-01-13T10:53:03.791Z,98130.75
2019-01-13T10:55:33.611Z,98125.17
2019-01-13T10:58:03.370Z,98131.54
2019-01-13T11:00:34.929Z,98112.51
2019-01-13T11:03:04.762Z,98110.70
2019-01-13T11:05:34.458Z,98117.67
2019-01-13T11:08:11.307Z,98115.86
2019-01-13T11:10:36.216Z,98104.55
2019-01-13T11:13:06.333Z,98094.50
2019-01-13T11:15:36.319Z,98092.41
2019-01-13T11:18:06.236Z,98089.75
2019-01-13T11:20:36.567Z,98081.50
2019-01-13T11:23:06.357Z,98085.66
2019-01-13T11:25:36.277Z,98079.28
2019-01-13T11:28:06.599Z,98086.08
2019-01-13T11:30:36.471Z,98085.45
2019-01-13T11:33:09.643Z,98079.81
2019-01-13T11:35:37.686Z,98058.50
2019-01-13T11:38:07.643Z,98055.15
2019-01-13T11:40:37.406Z,98048.84
2019-01-13T11:43:07.276Z,98041.56
2019-01-13T11:45:37.025Z,98031.43
2019-01-13T11:48:07.032Z,98028.41
2019-01-13T11:50:36.914Z,98034.67
2019-01-13T11:53:06.812Z,98022.05
2019-01-13T11:55:36.671Z,98020.91
2019-01-13T11:58:06.495Z,98016.75
2019-01-13T12:00:39.023Z,98010.77
2019-01-13T12:03:08.888Z,98010.08
2019-01-13T12:05:39.029Z,98003.28
2019-01-13T12:08:09.009Z,98007.33
2019-01-13T12:10:38.958Z,98023.05
2019-01-13T12:13:09.335Z,98014.59
2019-01-13T12:15:38.986Z,97830.39
2019-01-13T12:18:09.065Z,97831.86
2019-01-13T12:20:38.817Z,97861.80
2019-01-13T12:23:08.865Z,97848.51
2019-01-13T12:25:39.603Z,97882.32
2019-01-13T12:28:09.334Z,97886.92
2019-01-13T12:30:39.041Z,97903.62
2019-01-13T12:33:08.849Z,97898.58
2019-01-13T12:35:38.800Z,97886.97
2019-01-13T12:38:08.751Z,97897.11
2019-01-13T12:40:38.518Z,97899.92
2019-01-13T12:43:08.581Z,97882.25
2019-01-13T12:45:38.476Z,97896.00
2019-01-13T12:48:08.417Z,97897.42
2019-01-13T12:50:38.201Z,97890.07
2019-01-13T12:53:08.045Z,97890.64
2019-01-13T12:55:37.712Z,97891.91
2019-01-13T12:58:07.668Z,97889.87
2019-01-13T13:00:37.343Z,97878.70
2019-01-13T13:03:07.445Z,97857.52
2019-01-13T13:05:37.450Z,97863.52
2019-01-13T13:08:07.234Z,97863.27
2019-01-13T13:10:40.285Z,97834.91
2019-01-13T13:13:09.930Z,97847.44
2019-01-13T13:15:39.736Z,97849.41
2019-01-13T13:18:09.517Z,97836.23
2019-01-13T13:20:39.175Z,97852.66
2019-01-13T13:23:09.277Z,97840.77
2019-01-13T13:25:39.180Z,97832.25
2019-01-13T13:28:10.562Z,97843.67
2019-01-13T13:30:40.355Z,97835.78
2019-01-13T13:33:10.081Z,97830.89
2019-01-13T13:35:40.239Z,97826.27
2019-01-13T13:38:10.139Z,97666.56
2019-01-13T13:40:40.092Z,97677.16
2019-01-13T13:43:09.883Z,97710.08
2019-01-13T13:45:39.796Z,97728.62
2019-01-13T13:48:11.400Z,97791.17
2019-01-13T13:50:41.536Z,97821.98
2019-01-13T13:53:11.339Z,97836.98
2019-01-13T13:55:41.061Z,97840.97
2019-01-13T13:58:11.029Z,97849.16
2019-01-13T14:00:41.133Z,97839.66
2019-01-13T14:03:11.410Z,97827.80
2019-01-13T14:05:41.317Z,97824.04
2019-01-13T14:08:12.085Z,97834.61
2019-01-13T14:10:42.126Z,97833.92
2019-01-13T14:13:11.928Z,97828.16
2019-01-13T14:15:41.598Z,97846.02
2019-01-13T14:18:11.256Z,97849.95
2019-01-13T14:20:41.282Z,97781.47
2019-01-13T14:23:11.009Z,97817.58
2019-01-13T14:25:40.853Z,97827.47
2019-01-13T14:28:10.745Z,97821.37
2019-01-13T14:30:40.349Z,97826.67
2019-01-13T14:33:10.246Z,97822.73
2019-01-13T14:35:40.126Z,97821.31
2019-01-13T14:38:09.670Z,97822.98
2019-01-13T14:40:39.543Z,97807.88
2019-01-13T14:43:09.316Z,97805.80
2019-01-13T14:45:39.099Z,97803.09
2019-01-13T14:48:08.839Z,97798.86
2019-01-13T14:50:39.714Z,97800.41
2019-01-13T14:53:09.999Z,97809.14
2019-01-13T14:55:39.925Z,97794.83
2019-01-13T14:58:09.654Z,97797.52
2019-01-13T15:00:39.434Z,97795.67
2019-01-13T15:03:15.909Z,97792.21
2019-01-13T15:05:45.460Z,97795.32
2019-01-13T15:08:15.146Z,97785.88
2019-01-13T15:10:44.871Z,97780.22
2019-01-13T15:13:14.618Z,97795.09
2019-01-13T15:15:44.522Z,97780.42
2019-01-13T15:18:14.440Z,97772.27
2019-01-13T15:20:44.145Z,97790.20
2019-01-13T15:23:13.864Z,97807.38
2019-01-13T15:25:43.721Z,97742.03
2019-01-13T15:28:13.418Z,97774.60
2019-01-13T15:30:43.115Z,97787.96
2019-01-13T15:33:13.130Z,97813.37
2019-01-13T15:35:42.883Z,97817.32
2019-01-13T15:38:12.659Z,97800.65
2019-01-13T15:40:42.340Z,97808.61
2019-01-13T15:43:12.116Z,97799.95
2019-01-13T15:45:41.826Z,97777.59
2019-01-13T15:48:11.589Z,97806.76
2019-01-13T15:50:41.516Z,97794.05
2019-01-13T15:53:11.503Z,97821.36
2019-01-13T15:55:41.290Z,97816.59
2019-01-13T15:58:11.092Z,97822.13
2019-01-13T16:00:40.883Z,97798.57
2019-01-13T16:03:11.227Z,97787.22
2019-01-13T16:05:41.035Z,97776.59
2019-01-13T16:08:11.305Z,97777.40
2019-01-13T16:10:41.127Z,97744.77
2019-01-13T16:13:10.987Z,97753.27
2019-01-13T16:15:40.640Z,97746.90
2019-01-13T16:18:10.374Z,97734.72
2019-01-13T16:20:40.285Z,97701.28
2019-01-13T16:23:10.266Z,97713.77
2019-01-13T16:25:40.005Z,97711.64
2019-01-13T16:28:09.855Z,97734.95
2019-01-13T16:30:39.771Z,97727.50
2019-01-13T16:33:09.610Z,97726.19
2019-01-13T16:35:39.815Z,97727.77
2019-01-13T16:38:09.743Z,97715.31
2019-01-13T16:40:39.607Z,97714.54
2019-01-13T16:43:09.856Z,97705.02
2019-01-13T16:45:39.660Z,97686.99
2019-01-13T16:48:09.511Z,97688.55
2019-01-13T16:50:39.603Z,97698.91
2019-01-13T16:53:09.308Z,97683.27
2019-01-13T16:55:38.939Z,97680.30
2019-01-13T16:58:08.849Z,97679.80
2019-01-13T17:00:38.522Z,97666.58
2019-01-13T17:03:08.137Z,97662.03
2019-01-13T17:05:37.893Z,97661.25
2019-01-13T17:08:07.834Z,97661.78
2019-01-13T17:10:37.697Z,97670.02
2019-01-13T17:13:07.807Z,97655.17
2019-01-13T17:15:37.587Z,97667.88
2019-01-13T17:18:07.590Z,97661.49
2019-01-13T17:20:37.477Z,97669.20
2019-01-13T17:23:07.384Z,97671.30
2019-01-13T17:25:37.196Z,97673.44
2019-01-13T17:28:07.317Z,97673.71
2019-01-13T17:30:37.286Z,97695.98
2019-01-13T17:33:07.998Z,97720.75
2019-01-13T17:35:37.666Z,97758.13
2019-01-13T17:38:08.237Z,97777.66
2019-01-13T17:40:37.984Z,97778.81
2019-01-13T17:43:08.135Z,97772.25
2019-01-13T17:45:37.939Z,97777.53
2019-01-13T17:48:09.196Z,97774.30
2019-01-13T17:50:39.266Z,97763.05
2019-01-13T17:53:10.057Z,97762.11
2019-01-13T17:55:39.687Z,97766.49
2019-01-13T17:58:09.717Z,97771.66
2019-01-13T18:00:50.034Z,97765.55
2019-01-13T18:03:40.969Z,97768.70
2019-01-13T18:06:11.139Z,97764.12
2019-01-13T18:08:41.045Z,97768.34
2019-01-13T18:11:10.952Z,97754.34
2019-01-13T18:13:40.880Z,97768.58
2019-01-13T18:16:10.770Z,97782.66
2019-01-13T18:18:40.555Z,97795.83
2019-01-13T18:21:10.813Z,97817.17
2019-01-13T18:23:40.718Z,97840.86
2019-01-13T18:26:10.551Z,97855.18
2019-01-13T18:28:40.601Z,97850.63
2019-01-13T18:31:10.295Z,97840.71
2019-01-13T18:33:39.915Z,97827.25
2019-01-13T18:36:09.907Z,97825.47
2019-01-13T18:38:39.611Z,97842.94
2019-01-13T18:41:09.581Z,97826.08
2019-01-13T18:43:39.177Z,97734.02
2019-01-13T18:46:08.996Z,97700.94
2019-01-13T18:48:38.734Z,97716.68
2019-01-13T18:51:08.455Z,97726.07
2019-01-13T18:53:38.213Z,97726.95
2019-01-13T18:56:07.852Z,97725.37
2019-01-13T18:58:37.532Z,97735.02
2019-01-13T19:01:07.460Z,97747.39
2019-01-13T19:03:37.369Z,97760.09
2019-01-13T19:06:07.355Z,97750.13
2019-01-13T19:08:37.028Z,97756.66
2019-01-13T19:11:11.486Z,97761.72
2019-01-13T19:13:57.970Z,97762.11
2019-01-13T19:16:30.397Z,97762.11
2019-01-13T19:19:00.743Z,97767.96
2019-01-13T19:21:30.838Z,97773.18
2019-01-13T19:24:00.325Z,97772.66
2019-01-13T19:26:30.367Z,97779.92
2019-01-13T19:29:00.533Z,97807.92
2019-01-13T19:31:30.603Z,97803.28
2019-01-13T19:34:00.879Z,97817.06
2019-01-13T19:36:30.430Z,97826.64
2019-01-13T19:39:00.409Z,97818.45
2019-01-13T19:41:30.254Z,97821.34
2019-01-13T19:44:00.169Z,97837.36
2019-01-13T19:46:30.173Z,97834.42
2019-01-13T19:49:00.015Z,97836.22
2019-01-13T19:51:29.895Z,97841.23
2019-01-13T19:54:01.851Z,97839.06
2019-01-13T19:56:32.564Z,97842.38
2019-01-13T19:59:02.263Z,97848.75
2019-01-13T20:01:32.263Z,97843.30
2019-01-13T20:04:02.451Z,97843.59
2019-01-13T20:06:32.374Z,97841.44
2019-01-13T20:09:02.229Z,97859.86
2019-01-13T20:11:32.150Z,97850.84
2019-01-13T20:14:02.585Z,97863.76
2019-01-13T20:16:32.336Z,97871.39
2019-01-13T20:19:02.121Z,97863.10
2019-01-13T20:21:32.145Z,97873.25
2019-01-13T20:24:02.192Z,97885.05
2019-01-13T20:26:32.039Z,97873.63
2019-01-13T20:29:01.730Z,97886.03
2019-01-13T20:31:31.643Z,97888.90
2019-01-13T20:34:01.557Z,97892.94
2019-01-13T20:36:34.345Z,97888.96
2019-01-13T20:39:07.391Z,97891.92
2019-01-13T20:41:37.425Z,97912.48
2019-01-13T20:44:07.209Z,97919.60
2019-01-13T20:46:37.115Z,97907.33
2019-01-13T20:49:07.053Z,97906.66
2019-01-13T20:51:36.959Z,97903.22
2019-01-13T20:54:07.965Z,97909.96
2019-01-13T20:56:37.783Z,97885.36
2019-01-13T20:59:07.510Z,97896.64
2019-01-13T21:01:37.367Z,97890.69
2019-01-13T21:04:07.482Z,97892.98
2019-01-13T21:06:37.505Z,97899.95
2019-01-13T21:09:09.908Z,97895.16
2019-01-13T21:11:40.013Z,97890.80
2019-01-13T21:14:10.292Z,97896.53
2019-01-13T21:16:40.262Z,97884.89
2019-01-13T21:19:10.087Z,97900.39
2019-01-13T21:21:39.782Z,97895.41
2019-01-13T21:24:10.957Z,97892.64
2019-01-13T21:26:41.173Z,97898.47
2019-01-13T21:29:11.196Z,97883.37
2019-01-13T21:31:41.139Z,97896.11
2019-01-13T21:34:10.949Z,97902.05
2019-01-13T21:36:42.473Z,97902.72
2019-01-13T21:39:12.178Z,97906.32
2019-01-13T21:41:41.943Z,97920.27
2019-01-13T21:44:11.679Z,97901.97
2019-01-13T21:46:41.632Z,97905.00
2019-01-13T21:49:11.804Z,97899.11
2019-01-13T21:51:41.809Z,97900.10
2019-01-13T21:54:11.403Z,97905.66
2019-01-13T21:56:41.067Z,97891.20
2019-01-13T21:59:10.673Z,97909.69
2019-01-13T22:01:40.549Z,97906.26
2019-01-13T22:04:10.380Z,97910.54
2019-01-13T22:06:40.304Z,97905.31
2019-01-13T22:09:12.141Z,97913.92
2019-01-13T22:11:42.251Z,97911.02
2019-01-13T22:14:12.034Z,97902.64
2019-01-13T22:16:42.166Z,97910.80
2019-01-13T22:19:11.908Z,97912.34
2019-01-13T22:21:41.824Z,97918.14
2019-01-13T22:24:11.701Z,97925.55
2019-01-13T22:26:41.842Z,97926.98
2019-01-13T22:29:11.648Z,97933.85
2019-01-13T22:31:41.380Z,97938.44
2019-01-13T22:34:11.069Z,97947.55
2019-01-13T22:36:40.738Z,97926.67
2019-01-13T22:39:10.823Z,97941.53
2019-01-13T22:41:40.661Z,97946.88
2019-01-13T22:44:10.468Z,97951.00
2019-01-13T22:46:40.502Z,97953.71
2019-01-13T22:49:10.507Z,97964.78
2019-01-13T22:51:40.141Z,97958.11
2019-01-13T22:54:09.812Z,97972.78
2019-01-13T22:56:39.619Z,97976.16
2019-01-13T22:59:09.722Z,97980.05
2019-01-13T23:01:40.004Z,97993.08
2019-01-13T23:04:09.947Z,97993.41
2019-01-13T23:06:39.800Z,97978.61
2019-01-13T23:09:09.880Z,97980.07
2019-01-13T23:11:39.795Z,97976.16
2019-01-13T23:14:13.923Z,97981.32
2019-01-13T23:16:43.718Z,97981.45
2019-01-13T23:19:13.767Z,97986.80
2019-01-13T23:21:43.881Z,98005.23
2019-01-13T23:24:13.517Z,98020.76
2019-01-13T23:26:43.397Z,98017.19
2019-01-13T23:29:12.912Z,98008.75
2019-01-13T23:31:42.811Z,98024.25
2019-01-13T23:34:13.050Z,98019.24
2019-01-13T23:36:42.842Z,98035.11
2019-01-13T23:39:12.652Z,98036.81
2019-01-13T23:41:42.437Z,98032.05
2019-01-13T23:44:12.218Z,98031.98
2019-01-13T23:46:41.942Z,98030.09
2019-01-13T23:49:12.102Z,98045.61
2019-01-13T23:51:41.666Z,98053.70
2019-01-13T23:54:11.637Z,98049.05
2019-01-13T23:56:41.333Z,98059.97
2019-01-13T23:59:11.384Z,98057.45
